createdAt,value
2023-04-06T00:01:51.139Z,15.18
2023-04-06T00:04:18.557Z,16.10
2023-04-06T00:06:46.114Z,15.05
2023-04-06T00:09:13.505Z,15.80
2023-04-06T00:11:41.173Z,11.50
2023-04-06T00:14:08.603Z,13.88
2023-04-06T00:16:37.362Z,13.18
2023-04-06T00:19:04.785Z,15.73
2023-04-06T00:21:33.147Z,13.90
2023-04-06T00:24:00.589Z,14.05
2023-04-06T00:26:27.973Z,12.27
2023-04-06T00:28:56.421Z,12.55
2023-04-06T00:31:24.481Z,11.88
2023-04-06T00:33:53.219Z,15.00
2023-04-06T00:36:20.778Z,14.00
2023-04-06T00:38:48.177Z,13.50
2023-04-06T00:41:15.817Z,12.55
2023-04-06T00:43:43.202Z,11.90
2023-04-06T00:46:10.694Z,11.77
2023-04-06T00:48:38.127Z,12.32
2023-04-06T00:51:07.553Z,11.93
2023-04-06T00:53:34.984Z,12.43
2023-04-06T00:56:03.301Z,11.88
2023-04-06T00:58:39.549Z,11.70
2023-04-06T01:01:09.007Z,13.25
2023-04-06T01:03:36.793Z,12.23
2023-04-06T01:06:04.473Z,11.95
2023-04-06T01:08:39.014Z,11.93
2023-04-06T01:11:20.032Z,11.73
2023-04-06T01:13:49.834Z,12.57
2023-04-06T01:16:37.647Z,13.18
2023-04-06T01:19:14.579Z,12.80
2023-04-06T01:21:54.084Z,13.52
2023-04-06T01:24:42.793Z,13.30
2023-04-06T01:27:16.870Z,12.90
2023-04-06T01:29:58.229Z,12.63
2023-04-06T01:32:57.822Z,12.70
2023-04-06T01:35:43.791Z,11.85
2023-04-06T01:38:15.546Z,13.30
2023-04-06T01:43:12.077Z,12.25
2023-04-06T01:48:30.408Z,12.07
2023-04-06T01:50:59.183Z,11.73
2023-04-06T01:53:31.502Z,12.43
2023-04-06T01:56:04.424Z,12.35
2023-04-06T01:58:40.937Z,13.35
2023-04-06T02:01:08.698Z,12.98
2023-04-06T02:03:48.784Z,14.02
2023-04-06T02:06:16.313Z,12.68
2023-04-06T02:08:43.820Z,13.82
2023-04-06T02:11:11.212Z,13.18
2023-04-06T02:13:45.414Z,14.43
2023-04-06T02:16:13.032Z,13.48
2023-04-06T02:18:40.563Z,13.27
2023-04-06T02:21:07.992Z,13.40
2023-04-06T02:23:35.374Z,13.13
2023-04-06T02:26:02.740Z,13.50
2023-04-06T02:28:30.150Z,12.63
2023-04-06T02:30:58.869Z,14.20
2023-04-06T02:33:28.379Z,15.68
2023-04-06T02:35:56.026Z,13.00
2023-04-06T02:38:24.041Z,13.25
2023-04-06T02:40:53.230Z,13.45
2023-04-06T02:43:23.983Z,12.85
2023-04-06T02:45:56.360Z,13.27
2023-04-06T02:48:26.663Z,14.05
2023-04-06T02:50:54.398Z,13.68
2023-04-06T02:53:22.057Z,13.55
2023-04-06T02:55:49.462Z,13.27
2023-04-06T02:58:16.923Z,13.82
2023-04-06T03:00:52.424Z,13.57
2023-04-06T03:03:19.916Z,13.57
2023-04-06T03:05:49.251Z,13.15
2023-04-06T03:08:20.602Z,12.63
2023-04-06T03:10:47.980Z,14.30
2023-04-06T03:13:17.175Z,13.05
2023-04-06T03:15:53.332Z,13.50
2023-04-06T03:18:23.814Z,13.98
2023-04-06T03:20:54.764Z,13.30
2023-04-06T03:23:24.094Z,12.48
2023-04-06T03:25:56.424Z,13.52
2023-04-06T03:28:23.859Z,14.77
2023-04-06T03:30:57.907Z,15.10
2023-04-06T03:33:40.974Z,14.70
2023-04-06T03:36:12.498Z,14.15
2023-04-06T03:38:42.484Z,13.25
2023-04-06T03:41:13.468Z,14.98
2023-04-06T03:43:44.373Z,16.45
2023-04-06T03:46:11.921Z,15.98
2023-04-06T03:48:39.388Z,15.25
2023-04-06T03:51:07.962Z,14.57
2023-04-06T03:53:37.764Z,15.25
2023-04-06T03:56:05.505Z,15.15
2023-04-06T03:58:33.512Z,13.95
2023-04-06T04:01:01.069Z,14.80
2023-04-06T04:03:29.022Z,15.63
2023-04-06T04:05:57.043Z,15.18
2023-04-06T04:08:26.475Z,14.15
2023-04-06T04:13:22.506Z,15.38
2023-04-06T04:15:52.249Z,14.48
2023-04-06T04:18:19.652Z,15.05
2023-04-06T04:20:47.020Z,14.80
2023-04-06T04:23:14.493Z,14.88
2023-04-06T04:25:42.546Z,15.05
2023-04-06T04:28:10.059Z,15.13
2023-04-06T04:30:40.062Z,13.95
2023-04-06T04:33:11.072Z,15.80
2023-04-06T04:38:07.162Z,14.35
2023-04-06T04:40:37.609Z,13.73
2023-04-06T04:43:09.132Z,15.02
2023-04-06T04:45:36.600Z,14.82
2023-04-06T04:48:18.003Z,16.13
2023-04-06T04:50:52.212Z,15.68
2023-04-06T04:53:25.165Z,15.02
2023-04-06T04:55:56.052Z,15.23
2023-04-06T04:58:24.289Z,14.90
2023-04-06T05:00:56.915Z,14.25
2023-04-06T05:06:00.959Z,14.65
2023-04-06T05:08:32.172Z,15.07
2023-04-06T05:11:00.857Z,15.80
2023-04-06T05:13:31.614Z,15.32
2023-04-06T05:16:00.647Z,15.05
2023-04-06T05:18:31.694Z,16.48
2023-04-06T05:21:01.522Z,16.17
2023-04-06T05:23:40.416Z,16.95
2023-04-06T05:26:07.916Z,15.50
2023-04-06T05:28:35.485Z,15.55
2023-04-06T05:31:03.701Z,15.05
2023-04-06T05:33:38.787Z,16.17
2023-04-06T05:36:15.385Z,15.82
2023-04-06T05:38:45.843Z,14.75
2023-04-06T05:41:32.184Z,15.98
2023-04-06T05:43:59.690Z,16.23
2023-04-06T05:48:56.956Z,14.80
2023-04-06T05:51:28.999Z,14.48
2023-04-06T05:53:56.427Z,15.40
2023-04-06T05:56:24.651Z,16.83
2023-04-06T05:58:52.183Z,17.27
2023-04-06T06:01:25.685Z,16.45
2023-04-06T06:03:53.290Z,16.98
2023-04-06T06:06:21.299Z,14.63
2023-04-06T06:09:05.089Z,14.65
2023-04-06T06:11:38.210Z,15.70
2023-04-06T06:14:05.846Z,16.45
2023-04-06T06:16:36.931Z,16.00
2023-04-06T06:19:04.390Z,15.75
2023-04-06T06:21:33.267Z,17.35
2023-04-06T06:24:00.884Z,16.52
2023-04-06T06:26:29.588Z,16.05
2023-04-06T06:28:57.023Z,15.48
2023-04-06T06:33:52.992Z,15.07
2023-04-06T06:36:21.624Z,14.15
2023-04-06T06:38:49.276Z,15.95
2023-04-06T06:41:19.841Z,14.75
2023-04-06T06:43:48.974Z,14.70
2023-04-06T06:46:16.509Z,15.80
2023-04-06T06:48:44.061Z,13.93
2023-04-06T06:51:12.600Z,14.35
2023-04-06T06:53:41.614Z,13.57
2023-04-06T06:56:09.000Z,11.32
2023-04-06T06:58:36.872Z,10.43
2023-04-06T07:01:06.526Z,10.57
2023-04-06T07:03:35.486Z,9.45
2023-04-06T07:06:02.953Z,9.73
2023-04-06T07:08:30.494Z,9.85
2023-04-06T07:10:57.935Z,9.05
2023-04-06T07:13:25.630Z,9.35
2023-04-06T07:15:56.487Z,9.18
2023-04-06T07:18:25.539Z,9.02
2023-04-06T07:20:53.133Z,10.10
2023-04-06T07:23:20.784Z,10.27
2023-04-06T07:25:48.203Z,9.93
2023-04-06T07:28:15.619Z,8.88
2023-04-06T07:30:43.424Z,8.85
2023-04-06T07:33:12.277Z,8.68
2023-04-06T07:35:42.137Z,8.68
2023-04-06T07:38:09.984Z,8.93
2023-04-06T07:40:37.603Z,8.55
2023-04-06T07:43:05.146Z,8.68
2023-04-06T07:45:32.734Z,8.73
2023-04-06T07:48:01.787Z,8.48
2023-04-06T07:52:59.660Z,7.80
2023-04-06T07:55:28.329Z,8.32
2023-04-06T07:57:55.708Z,8.05
2023-04-06T08:00:23.504Z,9.15
2023-04-06T08:02:51.367Z,8.25
2023-04-06T08:07:47.165Z,8.85
2023-04-06T08:10:15.964Z,7.38
2023-04-06T08:12:43.370Z,7.65
2023-04-06T08:15:11.124Z,9.30
2023-04-06T08:17:38.578Z,9.88
2023-04-06T08:20:06.409Z,10.45
2023-04-06T08:22:33.815Z,8.65
2023-04-06T08:25:01.261Z,9.50
2023-04-06T08:27:30.216Z,8.35
2023-04-06T08:29:57.632Z,7.97
2023-04-06T08:32:25.047Z,8.02
2023-04-06T08:34:55.045Z,8.88
2023-04-06T08:37:23.465Z,8.38
2023-04-06T08:39:51.249Z,8.70
2023-04-06T08:42:22.446Z,9.93
2023-04-06T08:44:53.510Z,8.98
2023-04-06T08:47:24.564Z,11.23
2023-04-06T08:49:52.739Z,9.48
2023-04-06T08:52:20.348Z,10.25
2023-04-06T08:54:47.823Z,9.93
2023-04-06T08:57:15.485Z,9.40
2023-04-06T08:59:43.045Z,9.73
2023-04-06T09:02:14.780Z,11.80
2023-04-06T09:04:42.334Z,11.55
2023-04-06T09:07:09.774Z,12.00
2023-04-06T09:09:37.871Z,11.68
2023-04-06T09:14:38.394Z,10.80
2023-04-06T09:17:06.192Z,12.18
2023-04-06T09:19:34.950Z,11.73
2023-04-06T09:22:05.546Z,12.40
2023-04-06T09:24:41.519Z,12.25
2023-04-06T09:27:08.924Z,12.43
2023-04-06T09:29:37.592Z,12.52
2023-04-06T09:32:05.909Z,12.18
2023-04-06T09:34:35.160Z,12.73
2023-04-06T09:37:02.797Z,12.50
2023-04-06T09:39:30.376Z,12.60
2023-04-06T09:41:57.956Z,12.88
2023-04-06T09:44:25.947Z,12.60
2023-04-06T09:49:29.169Z,13.23
2023-04-06T09:52:00.333Z,12.02
2023-04-06T09:54:29.976Z,11.88
2023-04-06T09:56:59.625Z,11.30
2023-04-06T09:59:31.264Z,11.68
2023-04-06T10:02:00.365Z,10.98
2023-04-06T10:04:34.052Z,11.80
2023-04-06T10:07:03.980Z,12.23
2023-04-06T10:09:36.441Z,12.05
2023-04-06T10:12:05.171Z,14.07
2023-04-06T10:14:33.306Z,12.82
2023-04-06T10:17:01.317Z,14.65
2023-04-06T10:19:31.838Z,14.02
2023-04-06T10:22:01.182Z,16.27
2023-04-06T10:24:29.922Z,16.15
2023-04-06T10:27:01.186Z,16.60
2023-04-06T10:29:28.710Z,14.98
2023-04-06T10:31:57.032Z,14.95
2023-04-06T10:34:24.443Z,14.65
2023-04-06T10:36:51.857Z,14.10
2023-04-06T10:39:26.900Z,15.35
2023-04-06T10:41:55.872Z,16.17
2023-04-06T10:44:23.488Z,15.02
2023-04-06T10:46:57.422Z,15.40
2023-04-06T10:49:27.448Z,15.18
2023-04-06T10:51:55.882Z,15.95
2023-04-06T10:54:24.440Z,15.10
2023-04-06T10:56:51.830Z,15.13
2023-04-06T10:59:22.751Z,14.32
2023-04-06T11:01:50.709Z,14.02
2023-04-06T11:04:18.844Z,14.50
2023-04-06T11:06:48.527Z,13.98
2023-04-06T11:09:24.809Z,15.05
2023-04-06T11:11:52.482Z,14.73
2023-04-06T11:14:20.266Z,14.60
2023-04-06T11:16:50.889Z,15.55
2023-04-06T11:19:18.807Z,14.85
2023-04-06T11:21:48.633Z,15.02
2023-04-06T11:24:17.252Z,15.73
2023-04-06T11:26:45.761Z,16.13
2023-04-06T11:29:13.861Z,11.68
2023-04-06T11:31:42.064Z,12.23
2023-04-06T11:34:14.466Z,14.15
2023-04-06T11:36:42.781Z,13.73
2023-04-06T11:39:10.691Z,12.50
2023-04-06T11:44:05.559Z,14.90
2023-04-06T11:46:33.128Z,14.18
2023-04-06T11:49:00.801Z,14.93
2023-04-06T11:51:29.748Z,13.57
2023-04-06T11:53:57.731Z,15.52
2023-04-06T11:58:52.564Z,16.00
2023-04-06T12:01:19.984Z,14.90
2023-04-06T12:03:47.720Z,18.55
2023-04-06T12:11:11.559Z,18.92
2023-04-06T12:13:39.354Z,18.48
2023-04-06T12:16:07.204Z,19.85
2023-04-06T12:18:34.634Z,17.67
2023-04-06T12:21:02.079Z,16.55
2023-04-06T12:23:29.589Z,19.02
2023-04-06T12:25:57.197Z,18.30
2023-04-06T12:28:27.818Z,18.40
2023-04-06T12:30:56.116Z,17.00
2023-04-06T12:33:23.621Z,19.85
2023-04-06T12:35:51.141Z,21.55
2023-04-06T12:38:18.608Z,20.42
2023-04-06T12:40:46.014Z,21.45
2023-04-06T12:43:14.000Z,14.23
2023-04-06T12:48:10.455Z,13.48
2023-04-06T12:50:37.912Z,14.25
2023-04-06T12:53:05.581Z,13.48
2023-04-06T12:55:35.133Z,13.32
2023-04-06T12:58:02.772Z,13.23
2023-04-06T13:00:31.610Z,14.68
2023-04-06T13:02:59.182Z,13.65
2023-04-06T13:05:29.338Z,15.40
2023-04-06T13:07:58.115Z,14.02
2023-04-06T13:10:25.517Z,13.05
2023-04-06T13:12:53.000Z,15.27
2023-04-06T13:15:20.518Z,16.10
2023-04-06T13:17:47.962Z,13.30
2023-04-06T13:20:15.452Z,14.40
2023-04-06T13:22:44.213Z,15.02
2023-04-06T13:25:11.634Z,13.65
2023-04-06T13:27:39.057Z,15.38
2023-04-06T13:30:07.137Z,13.93
2023-04-06T13:32:34.687Z,14.23
2023-04-06T13:35:03.340Z,13.65
2023-04-06T13:37:30.908Z,12.73
2023-04-06T13:39:59.750Z,13.95
2023-04-06T13:42:27.760Z,13.95
2023-04-06T13:44:55.435Z,15.20
2023-04-06T13:47:22.866Z,15.68
2023-04-06T13:49:51.837Z,17.00
2023-04-06T13:52:19.423Z,14.15
2023-04-06T13:54:46.863Z,12.05
2023-04-06T13:57:15.704Z,15.77
2023-04-06T14:02:15.640Z,11.73
2023-04-06T14:04:43.284Z,12.88
2023-04-06T14:07:10.841Z,10.60
2023-04-06T14:09:38.275Z,10.70
2023-04-06T14:12:05.737Z,11.05
2023-04-06T14:14:34.485Z,11.60
2023-04-06T14:17:01.935Z,12.13
2023-04-06T14:19:29.559Z,12.02
2023-04-06T14:21:57.274Z,11.07
2023-04-06T14:24:24.679Z,10.43
2023-04-06T14:26:52.160Z,12.25
2023-04-06T14:29:19.646Z,12.13
2023-04-06T14:31:48.930Z,13.60
2023-04-06T14:34:17.666Z,12.18
2023-04-06T14:36:45.136Z,10.77
2023-04-06T14:39:12.523Z,12.45
2023-04-06T14:41:39.914Z,13.35
2023-04-06T14:44:07.388Z,14.23
2023-04-06T14:46:34.964Z,13.23
2023-04-06T14:49:04.478Z,13.48
2023-04-06T14:51:31.853Z,12.05
2023-04-06T14:53:59.331Z,12.90
2023-04-06T14:56:26.717Z,12.60
2023-04-06T14:58:54.640Z,12.43
2023-04-06T15:01:22.389Z,10.68
2023-04-06T15:03:50.301Z,12.02
2023-04-06T15:06:21.453Z,11.80
2023-04-06T15:08:49.443Z,13.00
2023-04-06T15:13:44.352Z,13.50
2023-04-06T15:16:12.110Z,12.57
2023-04-06T15:18:39.532Z,12.63
2023-04-06T15:21:07.090Z,12.75
2023-04-06T15:23:36.162Z,12.02
2023-04-06T15:26:03.544Z,12.65
2023-04-06T15:28:31.417Z,12.52
2023-04-06T15:30:59.047Z,12.15
2023-04-06T15:33:27.713Z,11.95
2023-04-06T15:35:55.518Z,11.95
2023-04-06T15:38:23.526Z,11.38
2023-04-06T15:43:19.677Z,13.02
2023-04-06T15:45:47.188Z,14.80
2023-04-06T15:48:14.650Z,11.63
2023-04-06T15:50:42.054Z,11.85
2023-04-06T15:53:09.418Z,11.18
2023-04-06T15:55:36.851Z,13.50
2023-04-06T15:58:04.301Z,14.70
2023-04-06T16:00:33.067Z,15.23
2023-04-06T16:03:00.988Z,12.45
2023-04-06T16:05:33.978Z,12.30
2023-04-06T16:08:02.192Z,11.85
2023-04-06T16:10:29.676Z,11.27
2023-04-06T16:12:57.123Z,15.85
2023-04-06T16:15:24.574Z,15.60
2023-04-06T16:17:53.315Z,15.45
2023-04-06T16:20:20.708Z,13.18
2023-04-06T16:22:49.588Z,9.27
2023-04-06T16:25:17.128Z,8.77
2023-04-06T16:27:44.548Z,8.73
2023-04-06T16:30:12.229Z,9.18
2023-04-06T16:32:39.656Z,8.60
2023-04-06T16:35:09.078Z,8.65
2023-04-06T16:37:36.493Z,8.98
2023-04-06T16:40:04.138Z,8.68
2023-04-06T16:42:31.689Z,8.70
2023-04-06T16:44:59.539Z,8.70
2023-04-06T16:47:27.000Z,8.45
2023-04-06T16:49:55.329Z,8.55
2023-04-06T16:52:35.651Z,8.98
2023-04-06T16:55:03.044Z,9.30
2023-04-06T16:57:30.634Z,9.80
2023-04-06T16:59:58.286Z,10.55
2023-04-06T17:02:25.921Z,10.43
2023-04-06T17:04:53.394Z,9.82
2023-04-06T17:07:22.188Z,10.40
2023-04-06T17:09:50.949Z,10.02
2023-04-06T17:12:18.319Z,11.30
2023-04-06T17:14:45.801Z,9.23
2023-04-06T17:17:13.256Z,7.95
2023-04-06T17:19:40.689Z,10.23
2023-04-06T17:22:08.227Z,9.80
2023-04-06T17:24:36.042Z,10.25
2023-04-06T17:27:04.784Z,8.90
2023-04-06T17:29:32.219Z,9.10
2023-04-06T17:31:59.629Z,8.20
2023-04-06T17:34:27.065Z,9.00
2023-04-06T17:36:54.447Z,9.88
2023-04-06T17:39:21.881Z,7.78
2023-04-06T17:41:49.244Z,7.53
2023-04-06T17:44:17.981Z,8.18
2023-04-06T17:46:45.640Z,8.75
2023-04-06T17:49:13.346Z,9.77
2023-04-06T17:51:40.757Z,11.30
2023-04-06T17:54:08.273Z,9.30
2023-04-06T17:56:35.775Z,10.85
2023-04-06T17:59:07.663Z,10.75
2023-04-06T18:01:36.484Z,11.57
2023-04-06T18:04:04.005Z,11.63
2023-04-06T18:06:31.719Z,12.85
2023-04-06T18:08:59.770Z,12.00
2023-04-06T18:11:29.381Z,13.65
2023-04-06T18:13:56.748Z,12.93
2023-04-06T18:16:24.844Z,11.55
2023-04-06T18:18:53.849Z,11.10
2023-04-06T18:21:21.248Z,10.77
2023-04-06T18:23:49.250Z,12.65
2023-04-06T18:28:44.046Z,12.10
2023-04-06T18:31:11.421Z,14.18
2023-04-06T18:33:38.820Z,14.68
2023-04-06T18:36:07.903Z,14.65
2023-04-06T18:38:35.288Z,13.77
2023-04-06T18:41:02.700Z,13.98
2023-04-06T18:43:30.356Z,13.82
2023-04-06T18:45:57.722Z,12.93
2023-04-06T18:48:25.192Z,12.68
2023-04-06T18:50:52.930Z,11.40
2023-04-06T18:53:22.083Z,12.02
2023-04-06T18:55:49.607Z,12.35
2023-04-06T18:58:17.020Z,11.35
2023-04-06T19:00:44.417Z,11.27
2023-04-06T19:03:11.964Z,10.13
2023-04-06T19:05:41.396Z,11.50
2023-04-06T19:08:08.899Z,11.82
2023-04-06T19:10:38.493Z,10.02
2023-04-06T19:13:06.121Z,9.60
2023-04-06T19:15:33.585Z,9.10
2023-04-06T19:18:01.184Z,10.95
2023-04-06T19:20:28.581Z,10.05
2023-04-06T19:22:57.233Z,10.10
2023-04-06T19:25:24.976Z,12.65
2023-04-06T19:27:53.708Z,11.15
2023-04-06T19:30:21.203Z,11.98
2023-04-06T19:32:48.889Z,11.98
2023-04-06T19:35:16.354Z,12.05
2023-04-06T19:37:44.278Z,11.93
2023-04-06T19:40:11.780Z,11.68
2023-04-06T19:42:39.533Z,10.60
2023-04-06T19:45:08.873Z,12.32
2023-04-06T19:47:36.302Z,11.63
2023-04-06T19:50:04.236Z,11.10
2023-04-06T19:55:00.576Z,10.65
2023-04-06T19:57:28.437Z,12.43
2023-04-06T19:59:56.262Z,13.27
2023-04-06T20:07:20.591Z,12.57
2023-04-06T20:09:48.403Z,12.52
2023-04-06T20:12:16.263Z,12.27
2023-04-06T20:14:44.100Z,13.05
2023-04-06T20:17:11.921Z,12.75
2023-04-06T20:22:07.574Z,11.50
2023-04-06T20:24:36.440Z,11.68
2023-04-06T20:27:04.287Z,12.15
2023-04-06T20:29:32.087Z,12.63
2023-04-06T20:32:01.342Z,11.55
2023-04-06T20:34:29.807Z,11.20
2023-04-06T20:36:57.717Z,10.80
2023-04-06T20:39:27.157Z,12.00
2023-04-06T20:41:57.283Z,10.73
2023-04-06T20:44:26.158Z,10.02
2023-04-06T20:46:53.645Z,11.25
2023-04-06T20:49:23.413Z,10.55
2023-04-06T20:51:51.287Z,10.75
2023-04-06T20:56:46.318Z,11.02
2023-04-06T20:59:15.458Z,11.10
2023-04-06T21:01:43.939Z,11.93
2023-04-06T21:04:11.480Z,10.63
2023-04-06T21:06:38.924Z,12.20
2023-04-06T21:09:06.350Z,10.93
2023-04-06T21:11:33.850Z,10.93
2023-04-06T21:14:01.222Z,11.10
2023-04-06T21:16:29.960Z,11.20
2023-04-06T21:18:57.324Z,12.25
2023-04-06T21:21:24.742Z,10.77
2023-04-06T21:23:53.060Z,11.77
2023-04-06T21:26:20.538Z,10.98
2023-04-06T21:28:47.883Z,11.32
2023-04-06T21:31:16.376Z,10.98
2023-04-06T21:33:45.173Z,10.25
2023-04-06T21:36:12.554Z,11.23
2023-04-06T21:38:39.922Z,9.15
2023-04-06T21:41:07.439Z,10.35
2023-04-06T21:43:35.595Z,10.27
2023-04-06T21:46:03.101Z,9.90
2023-04-06T21:48:30.491Z,10.77
2023-04-06T21:50:59.214Z,10.32
2023-04-06T21:53:26.608Z,9.73
2023-04-06T21:55:53.970Z,9.82
2023-04-06T21:58:21.562Z,10.27
2023-04-06T22:00:48.945Z,9.82
2023-04-06T22:03:16.474Z,10.32
2023-04-06T22:05:44.049Z,8.95
2023-04-06T22:08:17.886Z,9.93
2023-04-06T22:10:53.169Z,9.15
2023-04-06T22:13:20.537Z,9.52
2023-04-06T22:15:47.955Z,9.10
2023-04-06T22:18:15.328Z,9.32
2023-04-06T22:20:42.758Z,10.20
2023-04-06T22:23:10.733Z,9.52
2023-04-06T22:28:06.748Z,9.43
2023-04-06T22:30:34.198Z,9.27
2023-04-06T22:33:01.588Z,9.85
2023-04-06T22:35:29.016Z,10.18
2023-04-06T22:37:56.823Z,9.05
2023-04-06T22:40:24.362Z,9.32
2023-04-06T22:42:51.750Z,9.35
2023-04-06T22:45:20.553Z,9.25
2023-04-06T22:47:48.037Z,8.98
2023-04-06T22:50:15.871Z,8.98
2023-04-06T22:52:43.312Z,9.43
2023-04-06T22:55:10.790Z,8.82
2023-04-06T22:57:38.219Z,9.55
2023-04-06T23:00:06.307Z,9.30
2023-04-06T23:02:35.139Z,10.00
2023-04-06T23:05:02.808Z,9.30
2023-04-06T23:07:32.418Z,9.23
2023-04-06T23:09:59.836Z,9.27
2023-04-06T23:12:27.316Z,9.40
2023-04-06T23:14:54.725Z,8.80
2023-04-06T23:17:22.193Z,9.68
2023-04-06T23:19:51.326Z,8.65
2023-04-06T23:22:18.685Z,8.35
2023-04-06T23:24:46.207Z,8.25
2023-04-06T23:27:13.597Z,8.20
2023-04-06T23:29:41.256Z,7.72
2023-04-06T23:32:08.711Z,8.63
2023-04-06T23:34:36.110Z,9.70
2023-04-06T23:37:04.870Z,9.20
2023-04-06T23:39:32.309Z,9.20
2023-04-06T23:41:59.732Z,9.02
2023-04-06T23:44:29.843Z,9.27
2023-04-06T23:46:57.280Z,9.63
2023-04-06T23:49:24.658Z,9.35
2023-04-06T23:51:52.480Z,10.75
2023-04-06T23:54:21.219Z,9.18
2023-04-06T23:56:50.451Z,10.35
2023-04-06T23:59:17.851Z,9.90
